Time,TemperatureF,DewpointF,PressureIn,WindDirection,WindDirectionDegrees,WindSpeedMPH,WindSpeedGustMPH,Humidity,HourlyPrecipIn,Conditions,Clouds,dailyrainin,SoftwareType,DateUTC
2013-01-31 00:05:00,39.0,37.7,29.90,NNE,28,0.0,2.0,95,0.00,,,0.00,Wunderground v.1.15,2013-01-31 08:05:00,
2013-01-31 00:11:00,39.0,37.7,29.90,NNE,33,0.0,2.0,95,0.00,,,0.00,Wunderground v.1.15,2013-01-31 08:11:00,
2013-01-31 00:17:00,38.7,37.1,29.89,NE,34,0.0,2.0,94,0.00,,,0.00,Wunderground v.1.15,2013-01-31 08:17:00,
2013-01-31 00:22:00,38.7,37.4,29.89,NE,38,1.0,2.0,95,0.00,,,0.00,Wunderground v.1.15,2013-01-31 08:22:00,
2013-01-31 00:27:00,38.8,37.5,29.89,NE,51,1.0,2.0,95,0.00,,,0.00,Wunderground v.1.15,2013-01-31 08:27:00,
2013-01-31 00:33:00,38.9,37.6,29.89,NE,45,1.0,2.0,95,0.00,,,0.00,Wunderground v.1.15,2013-01-31 08:33:00,
2013-01-31 00:38:00,39.1,37.8,29.89,NE,42,1.0,2.0,95,0.00,,,0.00,Wunderground v.1.15,2013-01-31 08:38:00,
2013-01-31 00:43:00,39.4,38.4,29.89,NNE,32,1.0,2.0,96,0.00,,,0.00,Wunderground v.1.15,2013-01-31 08:43:00,
2013-01-31 00:49:00,39.4,38.1,29.88,North,5,1.0,2.0,95,0.00,,,0.00,Wunderground v.1.15,2013-01-31 08:49:00,
2013-01-31 00:54:00,39.3,38.0,29.88,NE,44,1.0,2.0,95,0.00,,,0.00,Wunderground v.1.15,2013-01-31 08:54:00,
2013-01-31 01:00:00,39.6,38.3,29.88,NE,48,0.0,2.0,95,0.00,,,0.00,Wunderground v.1.15,2013-01-31 09:00:00,
2013-01-31 01:05:00,39.6,38.3,29.88,NE,51,0.0,2.0,95,0.00,,,0.00,Wunderground v.1.15,2013-01-31 09:05:00,
2013-01-31 01:11:00,39.6,38.3,29.88,NE,55,0.0,2.0,95,0.00,,,0.00,Wunderground v.1.15,2013-01-31 09:11:00,
2013-01-31 01:16:00,39.4,38.1,29.88,NE,42,0.0,2.0,95,0.00,,,0.00,Wunderground v.1.15,2013-01-31 09:16:00,
2013-01-31 01:22:00,39.2,37.9,29.88,NE,42,0.0,2.0,95,0.00,,,0.00,Wunderground v.1.15,2013-01-31 09:22:00,
2013-01-31 01:27:00,38.9,37.3,29.88,NE,42,0.0,2.0,94,0.00,,,0.00,Wunderground v.1.15,2013-01-31 09:27:00,
2013-01-31 01:33:00,38.7,37.1,29.88,NE,42,0.0,2.0,94,0.00,,,0.00,Wunderground v.1.15,2013-01-31 09:33:00,
2013-01-31 01:39:00,38.5,36.9,29.88,NE,49,0.0,2.0,94,0.00,,,0.00,Wunderground v.1.15,2013-01-31 09:39:00,
2013-01-31 01:44:00,38.7,37.4,29.88,ENE,57,1.0,2.0,95,0.00,,,0.00,Wunderground v.1.15,2013-01-31 09:44:00,
2013-01-31 01:50:00,38.9,37.6,29.88,NE,51,1.0,1.0,95,0.00,,,0.00,Wunderground v.1.15,2013-01-31 09:50:00,
2013-01-31 01:56:00,38.9,37.6,29.88,NE,51,0.0,2.0,95,0.00,,,0.00,Wunderground v.1.15,2013-01-31 09:56:00,
2013-01-31 02:02:00,38.8,37.5,29.87,NE,36,1.0,2.0,95,0.00,,,0.00,Wunderground v.1.15,2013-01-31 10:02:00,
2013-01-31 02:07:00,38.8,37.5,29.87,NE,40,2.0,3.0,95,0.00,,,0.00,Wunderground v.1.15,2013-01-31 10:07:00,
2013-01-31 02:13:00,39.0,37.7,29.87,NE,53,1.0,2.0,95,0.00,,,0.00,Wunderground v.1.15,2013-01-31 10:13:00,
2013-01-31 02:18:00,39.2,38.2,29.87,NE,54,1.0,2.0,96,0.00,,,0.00,Wunderground v.1.15,2013-01-31 10:18:00,
2013-01-31 02:23:00,39.4,38.4,29.87,ENE,58,0.0,2.0,96,0.00,,,0.00,Wunderground v.1.15,2013-01-31 10:23:00,
2013-01-31 02:28:00,39.5,38.5,29.86,ENE,58,0.0,2.0,96,0.00,,,0.00,Wunderground v.1.15,2013-01-31 10:28:00,
2013-01-31 02:34:00,39.6,38.3,29.86,ENE,74,0.0,2.0,95,0.00,,,0.00,Wunderground v.1.15,2013-01-31 10:34:00,
2013-01-31 02:39:00,39.8,38.8,29.86,ENE,76,1.0,2.0,96,0.00,,,0.00,Wunderground v.1.15,2013-01-31 10:39:00,
2013-01-31 02:45:00,40.0,39.0,29.86,ENE,66,1.0,2.0,96,0.00,,,0.00,Wunderground v.1.15,2013-01-31 10:45:00,
2013-01-31 02:51:00,40.1,38.8,29.86,ENE,62,1.0,2.0,95,0.00,,,0.00,Wunderground v.1.15,2013-01-31 10:51:00,
2013-01-31 02:56:00,40.1,38.8,29.86,ENE,59,1.0,2.0,95,0.00,,,0.00,Wunderground v.1.15,2013-01-31 10:56:00,
2013-01-31 03:02:00,40.0,38.7,29.85,NE,35,1.0,2.0,95,0.00,,,0.00,Wunderground v.1.15,2013-01-31 11:02:00,
2013-01-31 03:08:00,39.9,38.3,29.85,NNE,30,1.0,2.0,94,0.00,,,0.00,Wunderground v.1.15,2013-01-31 11:08:00,
2013-01-31 03:14:00,40.0,38.7,29.85,NE,40,1.0,2.0,95,0.00,,,0.00,Wunderground v.1.15,2013-01-31 11:14:00,
2013-01-31 03:20:00,40.4,39.1,29.85,NE,49,2.0,2.0,95,0.00,,,0.00,Wunderground v.1.15,2013-01-31 11:20:00,
2013-01-31 03:25:00,41.0,39.7,29.85,ENE,58,2.0,5.0,95,0.00,,,0.00,Wunderground v.1.15,2013-01-31 11:25:00,
2013-01-31 03:30:00,41.4,39.8,29.85,NE,51,2.0,2.0,94,0.00,,,0.00,Wunderground v.1.15,2013-01-31 11:30:00,
2013-01-31 03:36:00,41.8,39.9,29.85,NE,41,1.0,2.0,93,0.00,,,0.00,Wunderground v.1.15,2013-01-31 11:36:00,
2013-01-31 03:41:00,41.8,39.6,29.85,NE,41,0.0,2.0,92,0.00,,,0.00,Wunderground v.1.15,2013-01-31 11:41:00,
2013-01-31 03:47:00,41.5,39.3,29.84,NE,41,0.0,2.0,92,0.00,,,0.00,Wunderground v.1.15,2013-01-31 11:47:00,
2013-01-31 03:53:00,41.0,38.6,29.84,NE,38,0.0,2.0,91,0.00,,,0.00,Wunderground v.1.15,2013-01-31 11:53:00,
2013-01-31 03:58:00,40.6,38.2,29.84,NE,47,1.0,2.0,91,0.00,,,0.00,Wunderground v.1.15,2013-01-31 11:58:00,
2013-01-31 04:04:00,40.2,37.8,29.84,NE,46,1.0,2.0,91,0.00,,,0.00,Wunderground v.1.15,2013-01-31 12:04:00,
2013-01-31 04:09:00,39.8,37.7,29.84,NE,46,0.0,2.0,92,0.00,,,0.00,Wunderground v.1.15,2013-01-31 12:09:00,
2013-01-31 04:14:00,39.5,37.4,29.84,NE,46,0.0,2.0,92,0.00,,,0.00,Wunderground v.1.15,2013-01-31 12:14:00,
2013-01-31 04:19:00,39.3,37.2,29.84,NE,46,0.0,2.0,92,0.00,,,0.00,Wunderground v.1.15,2013-01-31 12:19:00,
2013-01-31 04:24:00,39.1,37.0,29.84,NE,47,0.0,2.0,92,0.00,,,0.00,Wunderground v.1.15,2013-01-31 12:24:00,
2013-01-31 04:30:00,38.8,36.7,29.84,NE,47,0.0,2.0,92,0.00,,,0.00,Wunderground v.1.15,2013-01-31 12:30:00,
2013-01-31 04:35:00,38.5,36.7,29.84,NE,47,0.0,2.0,93,0.00,,,0.00,Wunderground v.1.15,2013-01-31 12:35:00,
2013-01-31 04:40:00,38.3,36.5,29.84,NE,47,0.0,2.0,93,0.00,,,0.00,Wunderground v.1.15,2013-01-31 12:40:00,
2013-01-31 04:46:00,38.0,36.2,29.84,NNE,33,0.0,2.0,93,0.00,,,0.00,Wunderground v.1.15,2013-01-31 12:46:00,
2013-01-31 04:51:00,37.8,36.0,29.84,NE,42,1.0,2.0,93,0.00,,,0.00,Wunderground v.1.15,2013-01-31 12:51:00,
2013-01-31 04:56:00,38.0,36.4,29.84,NNE,30,1.0,2.0,94,0.00,,,0.00,Wunderground v.1.15,2013-01-31 12:56:00,
2013-01-31 05:01:00,38.2,36.9,29.84,NNE,32,1.0,2.0,95,0.00,,,0.00,Wunderground v.1.15,2013-01-31 13:01:00,
2013-01-31 05:07:00,38.4,37.1,29.84,NNE,17,1.0,2.0,95,0.00,,,0.00,Wunderground v.1.15,2013-01-31 13:07:00,
2013-01-31 05:12:00,38.5,37.2,29.84,NNE,14,1.0,2.0,95,0.00,,,0.00,Wunderground v.1.15,2013-01-31 13:12:00,
2013-01-31 05:17:00,38.5,36.9,29.84,North,360,1.0,2.0,94,0.00,,,0.00,Wunderground v.1.15,2013-01-31 13:17:00,
2013-01-31 05:22:00,38.6,37.3,29.83,NNE,12,1.0,2.0,95,0.00,,,0.00,Wunderground v.1.15,2013-01-31 13:22:00,
2013-01-31 05:27:00,38.6,37.3,29.83,North,5,1.0,2.0,95,0.00,,,0.00,Wunderground v.1.15,2013-01-31 13:27:00,
2013-01-31 05:32:00,38.5,36.9,29.83,NNW,346,1.0,2.0,94,0.00,,,0.00,Wunderground v.1.15,2013-01-31 13:32:00,
2013-01-31 05:38:00,38.5,36.9,29.83,North,10,1.0,2.0,94,0.00,,,0.00,Wunderground v.1.15,2013-01-31 13:38:00,
2013-01-31 05:43:00,38.3,36.7,29.83,NE,42,1.0,2.0,94,0.00,,,0.00,Wunderground v.1.15,2013-01-31 13:43:00,
2013-01-31 05:49:00,38.2,36.6,29.83,North,360,1.0,2.0,94,0.00,,,0.00,Wunderground v.1.15,2013-01-31 13:49:00,
2013-01-31 05:55:00,38.1,36.5,29.83,North,360,1.0,2.0,94,0.00,,,0.00,Wunderground v.1.15,2013-01-31 13:55:00,
2013-01-31 06:00:00,38.0,36.4,29.83,North,355,1.0,2.0,94,0.00,,,0.00,Wunderground v.1.15,2013-01-31 14:00:00,
2013-01-31 06:06:00,37.8,36.2,29.83,North,355,1.0,3.0,94,0.00,,,0.00,Wunderground v.1.15,2013-01-31 14:06:00,
2013-01-31 06:11:00,37.7,36.1,29.83,NNW,330,2.0,2.0,94,0.00,,,0.00,Wunderground v.1.15,2013-01-31 14:11:00,
2013-01-31 06:16:00,37.7,36.4,29.83,NNE,13,2.0,3.0,95,0.00,,,0.00,Wunderground v.1.15,2013-01-31 14:16:00,
2013-01-31 06:22:00,37.6,36.3,29.83,NNW,346,2.0,2.0,95,0.00,,,0.00,Wunderground v.1.15,2013-01-31 14:22:00,
2013-01-31 06:27:00,37.5,36.2,29.83,NNW,346,2.0,2.0,95,0.00,,,0.00,Wunderground v.1.15,2013-01-31 14:27:00,
2013-01-31 06:33:00,37.4,36.1,29.83,NNW,344,1.0,2.0,95,0.00,,,0.00,Wunderground v.1.15,2013-01-31 14:33:00,
2013-01-31 06:38:00,37.3,36.0,29.83,NNW,330,1.0,3.0,95,0.00,,,0.00,Wunderground v.1.15,2013-01-31 14:38:00,
2013-01-31 06:44:00,37.5,36.2,29.83,NW,323,2.0,3.0,95,0.00,,,0.00,Wunderground v.1.15,2013-01-31 14:44:00,
2013-01-31 06:49:00,37.9,36.9,29.83,NW,325,2.0,3.0,96,0.00,,,0.00,Wunderground v.1.15,2013-01-31 14:49:00,
2013-01-31 06:54:00,38.0,37.0,29.83,NW,325,1.0,2.0,96,0.00,,,0.00,Wunderground v.1.15,2013-01-31 14:54:00,
2013-01-31 07:00:00,38.0,36.7,29.84,NNE,28,1.0,2.0,95,0.00,,,0.00,Wunderground v.1.15,2013-01-31 15:00:00,
2013-01-31 07:06:00,38.3,37.3,29.84,North,5,1.0,2.0,96,0.00,,,0.00,Wunderground v.1.15,2013-01-31 15:06:00,
2013-01-31 07:11:00,38.4,37.4,29.83,North,5,1.0,2.0,96,0.00,,,0.00,Wunderground v.1.15,2013-01-31 15:11:00,
2013-01-31 07:16:00,38.4,37.1,29.84,NNW,336,1.0,2.0,95,0.00,,,0.00,Wunderground v.1.15,2013-01-31 15:16:00,
2013-01-31 07:22:00,38.3,37.0,29.84,NNW,346,1.0,2.0,95,0.00,,,0.00,Wunderground v.1.15,2013-01-31 15:22:00,
2013-01-31 07:28:00,38.3,37.0,29.84,NNW,346,1.0,2.0,95,0.00,,,0.00,Wunderground v.1.15,2013-01-31 15:28:00,
2013-01-31 07:34:00,38.6,37.6,29.84,North,360,1.0,3.0,96,0.00,,,0.00,Wunderground v.1.15,2013-01-31 15:34:00,
2013-01-31 07:39:00,38.9,37.9,29.84,NNW,338,2.0,3.0,96,0.00,,,0.00,Wunderground v.1.15,2013-01-31 15:39:00,
2013-01-31 07:44:00,39.2,38.2,29.84,NNE,13,1.0,2.0,96,0.00,,,0.00,Wunderground v.1.15,2013-01-31 15:44:00,
2013-01-31 07:50:00,39.4,38.4,29.85,NNE,13,1.0,1.0,96,0.00,,,0.00,Wunderground v.1.15,2013-01-31 15:50:00,
2013-01-31 07:56:00,39.8,38.8,29.85,NNE,27,0.0,2.0,96,0.00,,,0.00,Wunderground v.1.15,2013-01-31 15:56:00,
2013-01-31 08:01:00,40.3,39.5,29.85,NNE,17,1.0,2.0,97,0.00,,,0.00,Wunderground v.1.15,2013-01-31 16:01:00,
2013-01-31 08:07:00,40.8,40.0,29.85,NNE,19,1.0,2.0,97,0.00,,,0.00,Wunderground v.1.15,2013-01-31 16:07:00,
2013-01-31 08:13:00,41.6,40.8,29.85,NNE,19,1.0,2.0,97,0.00,,,0.00,Wunderground v.1.15,2013-01-31 16:13:00,
2013-01-31 08:19:00,42.7,41.9,29.85,North,9,1.0,2.0,97,0.00,,,0.00,Wunderground v.1.15,2013-01-31 16:19:00,
2013-01-31 08:25:00,43.8,43.3,29.85,NNE,22,1.0,2.0,98,0.00,,,0.00,Wunderground v.1.15,2013-01-31 16:25:00,
2013-01-31 08:31:00,44.9,44.1,29.86,NNE,32,1.0,2.0,97,0.00,,,0.00,Wunderground v.1.15,2013-01-31 16:31:00,
2013-01-31 08:36:00,45.8,43.9,29.86,NNE,26,1.0,2.0,93,0.00,,,0.00,Wunderground v.1.15,2013-01-31 16:36:00,
2013-01-31 08:42:00,47.0,44.2,29.86,NNE,15,0.0,2.0,90,0.00,,,0.00,Wunderground v.1.15,2013-01-31 16:42:00,
2013-01-31 08:47:00,48.0,44.0,29.86,NNE,15,0.0,2.0,86,0.00,,,0.00,Wunderground v.1.15,2013-01-31 16:47:00,
2013-01-31 08:53:00,49.4,43.8,29.86,NNE,33,0.0,2.0,81,0.00,,,0.00,Wunderground v.1.15,2013-01-31 16:53:00,
2013-01-31 08:59:00,50.8,43.5,29.86,NNE,22,0.0,2.0,76,0.00,,,0.00,Wunderground v.1.15,2013-01-31 16:59:00,
2013-01-31 09:04:00,52.1,43.0,29.86,ENE,71,0.0,2.0,71,0.00,,,0.00,Wunderground v.1.15,2013-01-31 17:04:00,
2013-01-31 09:09:00,53.4,42.7,29.86,NE,38,1.0,2.0,67,0.00,,,0.00,Wunderground v.1.15,2013-01-31 17:09:00,
2013-01-31 09:14:00,54.6,42.3,29.86,ESE,104,1.0,2.0,63,0.00,,,0.00,Wunderground v.1.15,2013-01-31 17:14:00,
2013-01-31 09:19:00,55.7,42.5,29.86,NE,36,1.0,2.0,61,0.00,,,0.00,Wunderground v.1.15,2013-01-31 17:19:00,
2013-01-31 09:25:00,57.0,43.2,29.86,East,88,1.0,2.0,60,0.00,,,0.00,Wunderground v.1.15,2013-01-31 17:25:00,
2013-01-31 09:30:00,57.9,42.8,29.86,NE,44,0.0,2.0,57,0.00,,,0.00,Wunderground v.1.15,2013-01-31 17:30:00,
2013-01-31 09:36:00,58.8,42.7,29.86,NE,53,0.0,2.0,55,0.00,,,0.00,Wunderground v.1.15,2013-01-31 17:36:00,
2013-01-31 09:41:00,59.7,42.5,29.86,SE,134,1.0,2.0,53,0.00,,,0.00,Wunderground v.1.15,2013-01-31 17:41:00,
2013-01-31 09:46:00,60.3,42.1,29.86,ENE,62,1.0,2.0,51,0.00,,,0.00,Wunderground v.1.15,2013-01-31 17:46:00,
2013-01-31 09:51:00,61.0,42.2,29.86,ENE,76,1.0,2.0,50,0.00,,,0.00,Wunderground v.1.15,2013-01-31 17:51:00,
2013-01-31 09:57:00,61.7,42.9,29.86,ESE,108,1.0,2.0,50,0.00,,,0.00,Wunderground v.1.15,2013-01-31 17:57:00,
2013-01-31 10:02:00,62.3,42.9,29.86,East,99,1.0,2.0,49,0.00,,,0.00,Wunderground v.1.15,2013-01-31 18:02:00,
2013-01-31 10:08:00,62.8,42.8,29.86,East,95,0.0,2.0,48,0.00,,,0.00,Wunderground v.1.15,2013-01-31 18:08:00,
2013-01-31 10:14:00,63.2,43.2,29.85,East,95,0.0,2.0,48,0.00,,,0.00,Wunderground v.1.15,2013-01-31 18:14:00,
2013-01-31 10:20:00,63.8,43.7,29.86,ENE,60,0.0,2.0,48,0.00,,,0.00,Wunderground v.1.15,2013-01-31 18:20:00,
2013-01-31 10:25:00,64.4,42.6,29.85,NE,37,0.0,2.0,45,0.00,,,0.00,Wunderground v.1.15,2013-01-31 18:25:00,
2013-01-31 10:31:00,64.8,44.1,29.85,South,175,1.0,2.0,47,0.00,,,0.00,Wunderground v.1.15,2013-01-31 18:31:00,
2013-01-31 10:36:00,65.1,43.8,29.85,South,176,1.0,2.0,46,0.00,,,0.00,Wunderground v.1.15,2013-01-31 18:36:00,
2013-01-31 10:42:00,65.5,44.7,29.85,South,180,1.0,2.0,47,0.00,,,0.00,Wunderground v.1.15,2013-01-31 18:42:00,
2013-01-31 10:47:00,65.9,44.5,29.85,South,171,1.0,3.0,46,0.00,,,0.00,Wunderground v.1.15,2013-01-31 18:47:00,
2013-01-31 10:52:00,66.4,43.8,29.84,South,178,1.0,3.0,44,0.00,,,0.00,Wunderground v.1.15,2013-01-31 18:52:00,
2013-01-31 10:58:00,66.9,42.4,29.84,South,176,1.0,3.0,41,0.00,,,0.00,Wunderground v.1.15,2013-01-31 18:58:00,
2013-01-31 11:04:00,67.3,44.0,29.83,South,180,1.0,2.0,43,0.00,,,0.00,Wunderground v.1.15,2013-01-31 19:04:00,
2013-01-31 11:09:00,67.9,45.2,29.83,SSW,203,1.0,2.0,44,0.00,,,0.00,Wunderground v.1.15,2013-01-31 19:09:00,
2013-01-31 11:14:00,68.7,46.5,29.83,SE,134,0.0,2.0,45,0.00,,,0.00,Wunderground v.1.15,2013-01-31 19:14:00,
2013-01-31 11:19:00,69.4,44.7,29.83,ENE,61,0.0,2.0,41,0.00,,,0.00,Wunderground v.1.15,2013-01-31 19:19:00,
2013-01-31 11:25:00,70.5,45.0,29.82,NNE,18,1.0,2.0,40,0.00,,,0.00,Wunderground v.1.15,2013-01-31 19:25:00,
2013-01-31 11:30:00,71.9,43.5,29.82,ENE,63,3.0,4.0,36,0.00,,,0.00,Wunderground v.1.15,2013-01-31 19:30:00,
2013-01-31 11:35:00,73.1,43.1,29.81,East,94,5.0,6.0,34,0.00,,,0.00,Wunderground v.1.15,2013-01-31 19:35:00,
2013-01-31 11:40:00,74.1,41.5,29.81,East,89,5.0,8.0,31,0.00,,,0.00,Wunderground v.1.15,2013-01-31 19:40:00,
2013-01-31 11:46:00,74.7,41.2,29.81,SE,128,5.0,9.0,30,0.00,,,0.00,Wunderground v.1.15,2013-01-31 19:46:00,
2013-01-31 11:52:00,75.2,41.6,29.80,NNW,344,5.0,13.0,30,0.00,,,0.00,Wunderground v.1.15,2013-01-31 19:52:00,
2013-01-31 11:57:00,75.3,40.8,29.80,ENE,78,6.0,13.0,29,0.00,,,0.00,Wunderground v.1.15,2013-01-31 19:57:00,
2013-01-31 12:02:00,75.4,40.9,29.80,SSE,165,6.0,6.0,29,0.00,,,0.00,Wunderground v.1.15,2013-01-31 20:02:00,
2013-01-31 12:07:00,75.6,42.0,29.79,East,83,6.0,8.0,30,0.00,,,0.00,Wunderground v.1.15,2013-01-31 20:07:00,
2013-01-31 12:12:00,75.9,39.5,29.79,East,94,6.0,8.0,27,0.00,,,0.00,Wunderground v.1.15,2013-01-31 20:12:00,
2013-01-31 12:17:00,75.9,40.4,29.79,ESE,105,6.0,11.0,28,0.00,,,0.00,Wunderground v.1.15,2013-01-31 20:17:00,
2013-01-31 12:23:00,76.1,39.7,29.78,NE,49,6.0,10.0,27,0.00,,,0.00,Wunderground v.1.15,2013-01-31 20:23:00,
2013-01-31 12:28:00,76.0,40.5,29.78,East,93,7.0,10.0,28,0.00,,,0.00,Wunderground v.1.15,2013-01-31 20:28:00,
2013-01-31 12:34:00,76.1,42.4,29.78,ESE,107,7.0,10.0,30,0.00,,,0.00,Wunderground v.1.15,2013-01-31 20:34:00,
2013-01-31 12:40:00,76.4,39.0,29.77,ENE,66,6.0,6.0,26,0.00,,,0.00,Wunderground v.1.15,2013-01-31 20:40:00,
2013-01-31 12:45:00,76.5,40.0,29.77,East,96,7.0,10.0,27,0.00,,,0.00,Wunderground v.1.15,2013-01-31 20:45:00,
2013-01-31 12:50:00,76.7,39.2,29.77,ESE,112,7.0,8.0,26,0.00,,,0.00,Wunderground v.1.15,2013-01-31 20:50:00,
2013-01-31 12:56:00,76.7,41.1,29.76,ENE,73,6.0,13.0,28,0.00,,,0.00,Wunderground v.1.15,2013-01-31 20:56:00,
2013-01-31 13:01:00,77.0,39.5,29.76,SE,136,6.0,6.0,26,0.00,,,0.00,Wunderground v.1.15,2013-01-31 21:01:00,
2013-01-31 13:07:00,77.2,40.6,29.76,East,84,6.0,8.0,27,0.00,,,0.00,Wunderground v.1.15,2013-01-31 21:07:00,
2013-01-31 13:13:00,77.6,40.0,29.75,NE,55,5.0,11.0,26,0.00,,,0.00,Wunderground v.1.15,2013-01-31 21:13:00,
2013-01-31 13:18:00,78.0,41.3,29.75,ENE,65,5.0,11.0,27,0.00,,,0.00,Wunderground v.1.15,2013-01-31 21:18:00,
2013-01-31 13:24:00,78.0,39.3,29.75,ENE,78,5.0,14.0,25,0.00,,,0.00,Wunderground v.1.15,2013-01-31 21:24:00,
2013-01-31 13:29:00,77.9,39.2,29.75,East,88,6.0,8.0,25,0.00,,,0.00,Wunderground v.1.15,2013-01-31 21:29:00,
2013-01-31 13:34:00,77.9,39.2,29.75,ENE,74,5.0,13.0,25,0.00,,,0.00,Wunderground v.1.15,2013-01-31 21:34:00,
2013-01-31 13:40:00,77.8,39.1,29.74,East,82,6.0,6.0,25,0.00,,,0.00,Wunderground v.1.15,2013-01-31 21:40:00,
2013-01-31 13:45:00,77.7,39.1,29.74,SE,139,6.0,6.0,25,0.00,,,0.00,Wunderground v.1.15,2013-01-31 21:45:00,
2013-01-31 13:50:00,77.9,39.2,29.74,ENE,73,5.0,5.0,25,0.00,,,0.00,Wunderground v.1.15,2013-01-31 21:50:00,
2013-01-31 13:56:00,78.2,38.4,29.74,South,182,4.0,8.0,24,0.00,,,0.00,Wunderground v.1.15,2013-01-31 21:56:00,
2013-01-31 14:02:00,77.9,38.2,29.74,SE,126,6.0,7.0,24,0.00,,,0.00,Wunderground v.1.15,2013-01-31 22:02:00,
2013-01-31 14:07:00,77.8,38.1,29.74,ESE,119,6.0,7.0,24,0.00,,,0.00,Wunderground v.1.15,2013-01-31 22:07:00,
2013-01-31 14:13:00,77.8,38.1,29.74,ESE,115,6.0,10.0,24,0.00,,,0.00,Wunderground v.1.15,2013-01-31 22:13:00,
2013-01-31 14:18:00,77.7,42.9,29.74,South,178,6.0,15.0,29,0.00,,,0.00,Wunderground v.1.15,2013-01-31 22:18:00,
2013-01-31 14:24:00,76.8,43.9,29.74,WSW,237,5.0,6.0,31,0.00,,,0.00,Wunderground v.1.15,2013-01-31 22:24:00,
2013-01-31 14:29:00,76.1,44.9,29.74,SW,226,3.0,6.0,33,0.00,,,0.00,Wunderground v.1.15,2013-01-31 22:29:00,
2013-01-31 14:34:00,75.8,43.8,29.74,SW,221,5.0,5.0,32,0.00,,,0.00,Wunderground v.1.15,2013-01-31 22:34:00,
2013-01-31 14:40:00,75.4,44.3,29.74,SW,231,6.0,6.0,33,0.00,,,0.00,Wunderground v.1.15,2013-01-31 22:40:00,
2013-01-31 14:46:00,75.2,44.9,29.74,SW,214,5.0,8.0,34,0.00,,,0.00,Wunderground v.1.15,2013-01-31 22:46:00,
2013-01-31 14:51:00,75.1,44.8,29.74,WSW,242,4.0,7.0,34,0.00,,,0.00,Wunderground v.1.15,2013-01-31 22:51:00,
2013-01-31 14:56:00,74.9,43.8,29.74,SW,231,4.0,7.0,33,0.00,,,0.00,Wunderground v.1.15,2013-01-31 22:56:00,
2013-01-31 15:02:00,74.5,43.5,29.74,SW,232,5.0,10.0,33,0.00,,,0.00,Wunderground v.1.15,2013-01-31 23:02:00,
2013-01-31 15:08:00,74.0,43.8,29.74,WSW,246,5.0,10.0,34,0.00,,,0.00,Wunderground v.1.15,2013-01-31 23:08:00,
2013-01-31 15:13:00,73.8,44.4,29.74,WSW,250,4.0,5.0,35,0.00,,,0.00,Wunderground v.1.15,2013-01-31 23:13:00,
2013-01-31 15:19:00,74.0,43.1,29.74,WSW,251,5.0,8.0,33,0.00,,,0.00,Wunderground v.1.15,2013-01-31 23:19:00,
2013-01-31 15:25:00,74.2,43.2,29.74,WSW,248,5.0,7.0,33,0.00,,,0.00,Wunderground v.1.15,2013-01-31 23:25:00,
2013-01-31 15:30:00,74.2,43.2,29.74,WSW,251,5.0,8.0,33,0.00,,,0.00,Wunderground v.1.15,2013-01-31 23:30:00,
2013-01-31 15:36:00,74.1,43.1,29.74,SW,232,5.0,8.0,33,0.00,,,0.00,Wunderground v.1.15,2013-01-31 23:36:00,
2013-01-31 15:42:00,74.3,44.1,29.74,SW,222,4.0,4.0,34,0.00,,,0.00,Wunderground v.1.15,2013-01-31 23:42:00,
2013-01-31 15:48:00,74.3,44.1,29.74,SSW,195,4.0,5.0,34,0.00,,,0.00,Wunderground v.1.15,2013-01-31 23:48:00,
2013-01-31 15:54:00,74.0,43.8,29.73,SW,229,3.0,5.0,34,0.00,,,0.00,Wunderground v.1.15,2013-01-31 23:54:00,
2013-01-31 16:00:00,73.8,43.7,29.73,SW,234,3.0,3.0,34,0.00,,,0.00,Wunderground v.1.15,2013-02-01 00:00:00,
2013-01-31 16:06:00,73.6,43.5,29.73,SW,217,4.0,5.0,34,0.00,,,0.00,Wunderground v.1.15,2013-02-01 00:06:00,
2013-01-31 16:11:00,73.4,43.3,29.73,SW,223,4.0,4.0,34,0.00,,,0.00,Wunderground v.1.15,2013-02-01 00:11:00,
2013-01-31 16:17:00,73.3,42.4,29.73,SW,227,3.0,4.0,33,0.00,,,0.00,Wunderground v.1.15,2013-02-01 00:17:00,
2013-01-31 16:23:00,73.4,42.5,29.74,SW,218,3.0,4.0,33,0.00,,,0.00,Wunderground v.1.15,2013-02-01 00:23:00,
2013-01-31 16:29:00,72.9,42.1,29.74,WSW,250,4.0,6.0,33,0.00,,,0.00,Wunderground v.1.15,2013-02-01 00:29:00,
2013-01-31 16:35:00,72.3,41.6,29.74,WSW,246,5.0,6.0,33,0.00,,,0.00,Wunderground v.1.15,2013-02-01 00:35:00,
2013-01-31 16:40:00,71.9,41.2,29.74,WSW,242,4.0,6.0,33,0.00,,,0.00,Wunderground v.1.15,2013-02-01 00:40:00,
2013-01-31 16:45:00,71.4,43.0,29.74,SW,236,3.0,6.0,36,0.00,,,0.00,Wunderground v.1.15,2013-02-01 00:45:00,
2013-01-31 16:50:00,71.0,43.4,29.74,West,259,2.0,2.0,37,0.00,,,0.00,Wunderground v.1.15,2013-02-01 00:50:00,
2013-01-31 16:56:00,70.5,45.0,29.74,West,264,2.0,2.0,40,0.00,,,0.00,Wunderground v.1.15,2013-02-01 00:56:00,
2013-01-31 17:01:00,69.9,43.8,29.74,West,263,2.0,3.0,39,0.00,,,0.00,Wunderground v.1.15,2013-02-01 01:01:00,
2013-01-31 17:06:00,69.2,44.5,29.74,West,260,1.0,4.0,41,0.00,,,0.00,Wunderground v.1.15,2013-02-01 01:06:00,
2013-01-31 17:11:00,68.4,43.1,29.74,WSW,247,2.0,2.0,40,0.00,,,0.00,Wunderground v.1.15,2013-02-01 01:11:00,
2013-01-31 17:16:00,67.1,44.4,29.74,SW,233,2.0,4.0,44,0.00,,,0.00,Wunderground v.1.15,2013-02-01 01:16:00,
2013-01-31 17:22:00,65.9,45.6,29.74,South,172,1.0,2.0,48,0.00,,,0.00,Wunderground v.1.15,2013-02-01 01:22:00,
2013-01-31 17:28:00,64.8,45.7,29.74,SSW,202,0.0,2.0,50,0.00,,,0.00,Wunderground v.1.15,2013-02-01 01:28:00,
2013-01-31 17:34:00,63.7,45.7,29.74,SSW,199,0.0,2.0,52,0.00,,,0.00,Wunderground v.1.15,2013-02-01 01:34:00,
2013-01-31 17:39:00,63.1,46.2,29.75,SW,215,0.0,2.0,54,0.00,,,0.00,Wunderground v.1.15,2013-02-01 01:39:00,
2013-01-31 17:45:00,62.2,46.3,29.75,SW,215,0.0,2.0,56,0.00,,,0.00,Wunderground v.1.15,2013-02-01 01:45:00,
2013-01-31 17:50:00,61.0,47.4,29.75,SW,215,0.0,2.0,61,0.00,,,0.00,Wunderground v.1.15,2013-02-01 01:50:00,
2013-01-31 17:55:00,59.8,46.7,29.75,SW,215,0.0,2.0,62,0.00,,,0.00,Wunderground v.1.15,2013-02-01 01:55:00,
2013-01-31 18:01:00,58.7,46.5,29.75,SW,215,0.0,2.0,64,0.00,,,0.00,Wunderground v.1.15,2013-02-01 02:01:00,
2013-01-31 18:07:00,58.1,46.4,29.75,SW,215,0.0,2.0,65,0.00,,,0.00,Wunderground v.1.15,2013-02-01 02:07:00,
2013-01-31 18:12:00,57.4,46.1,29.75,WSW,244,0.0,2.0,66,0.00,,,0.00,Wunderground v.1.15,2013-02-01 02:12:00,
2013-01-31 18:17:00,56.6,46.2,29.76,NW,311,0.0,2.0,68,0.00,,,0.00,Wunderground v.1.15,2013-02-01 02:17:00,
2013-01-31 18:23:00,55.9,46.3,29.76,NW,311,0.0,2.0,70,0.00,,,0.00,Wunderground v.1.15,2013-02-01 02:23:00,
2013-01-31 18:28:00,55.4,46.2,29.76,NW,311,0.0,2.0,71,0.00,,,0.00,Wunderground v.1.15,2013-02-01 02:28:00,
2013-01-31 18:33:00,54.7,46.2,29.76,NNW,341,0.0,2.0,73,0.00,,,0.00,Wunderground v.1.15,2013-02-01 02:33:00,
2013-01-31 18:38:00,54.2,46.1,29.76,NNW,341,0.0,2.0,74,0.00,,,0.00,Wunderground v.1.15,2013-02-01 02:38:00,
2013-01-31 18:44:00,53.6,45.9,29.76,NNW,341,0.0,2.0,75,0.00,,,0.00,Wunderground v.1.15,2013-02-01 02:44:00,
2013-01-31 18:49:00,53.2,45.8,29.76,NNW,341,0.0,2.0,76,0.00,,,0.00,Wunderground v.1.15,2013-02-01 02:49:00,
2013-01-31 18:55:00,52.6,45.6,29.76,NNW,335,0.0,2.0,77,0.00,,,0.00,Wunderground v.1.15,2013-02-01 02:55:00,
2013-01-31 19:00:00,52.0,45.4,29.76,NNW,327,0.0,2.0,78,0.00,,,0.00,Wunderground v.1.15,2013-02-01 03:00:00,
2013-01-31 19:06:00,51.4,45.1,29.76,NW,313,1.0,2.0,79,0.00,,,0.00,Wunderground v.1.15,2013-02-01 03:06:00,
2013-01-31 19:11:00,51.0,45.0,29.76,NW,321,1.0,2.0,80,0.00,,,0.00,Wunderground v.1.15,2013-02-01 03:11:00,
2013-01-31 19:17:00,50.6,45.3,29.76,NW,325,1.0,2.0,82,0.00,,,0.00,Wunderground v.1.15,2013-02-01 03:17:00,
2013-01-31 19:22:00,50.3,45.3,29.76,NW,323,1.0,2.0,83,0.00,,,0.00,Wunderground v.1.15,2013-02-01 03:22:00,
2013-01-31 19:28:00,50.0,45.0,29.76,NW,323,1.0,2.0,83,0.00,,,0.00,Wunderground v.1.15,2013-02-01 03:28:00,
2013-01-31 19:34:00,49.6,45.0,29.76,NW,323,0.0,2.0,84,0.00,,,0.00,Wunderground v.1.15,2013-02-01 03:34:00,
2013-01-31 19:39:00,49.3,45.0,29.77,NW,323,0.0,2.0,85,0.00,,,0.00,Wunderground v.1.15,2013-02-01 03:39:00,
2013-01-31 19:45:00,49.1,45.1,29.77,North,355,0.0,2.0,86,0.00,,,0.00,Wunderground v.1.15,2013-02-01 03:45:00,
2013-01-31 19:50:00,48.7,44.7,29.77,North,355,0.0,2.0,86,0.00,,,0.00,Wunderground v.1.15,2013-02-01 03:50:00,
2013-01-31 19:55:00,48.4,44.7,29.77,North,355,0.0,2.0,87,0.00,,,0.00,Wunderground v.1.15,2013-02-01 03:55:00,
2013-01-31 20:01:00,48.2,44.5,29.77,North,355,0.0,2.0,87,0.00,,,0.00,Wunderground v.1.15,2013-02-01 04:01:00,
2013-01-31 20:07:00,47.9,44.2,29.77,North,355,0.0,2.0,87,0.00,,,0.00,Wunderground v.1.15,2013-02-01 04:07:00,
2013-01-31 20:12:00,47.5,43.8,29.77,North,355,0.0,2.0,87,0.00,,,0.00,Wunderground v.1.15,2013-02-01 04:12:00,
2013-01-31 20:17:00,47.3,43.9,29.77,North,349,1.0,2.0,88,0.00,,,0.00,Wunderground v.1.15,2013-02-01 04:17:00,
2013-01-31 20:23:00,47.1,44.0,29.77,NNW,340,1.0,3.0,89,0.00,,,0.00,Wunderground v.1.15,2013-02-01 04:23:00,
2013-01-31 20:28:00,46.9,43.8,29.77,NNW,344,1.0,3.0,89,0.00,,,0.00,Wunderground v.1.15,2013-02-01 04:28:00,
2013-01-31 20:34:00,46.8,43.7,29.77,NNW,344,1.0,2.0,89,0.00,,,0.00,Wunderground v.1.15,2013-02-01 04:34:00,
2013-01-31 20:40:00,46.7,43.9,29.77,NNW,344,0.0,2.0,90,0.00,,,0.00,Wunderground v.1.15,2013-02-01 04:40:00,
2013-01-31 20:45:00,46.6,43.8,29.77,North,355,0.0,2.0,90,0.00,,,0.00,Wunderground v.1.15,2013-02-01 04:45:00,
2013-01-31 20:51:00,46.3,43.5,29.77,NNW,347,1.0,2.0,90,0.00,,,0.00,Wunderground v.1.15,2013-02-01 04:51:00,
2013-01-31 20:57:00,46.2,43.4,29.77,NNW,348,1.0,2.0,90,0.00,,,0.00,Wunderground v.1.15,2013-02-01 04:57:00,
2013-01-31 21:00:00,46.2,43.4,29.77,NNW,348,0.0,2.0,90,0.00,,,0.00,Wunderground v.1.15,2013-02-01 05:00:00,
2013-01-31 21:01:00,46.1,43.3,29.77,NNW,348,0.0,2.0,90,0.00,,,0.00,Wunderground v.1.15,2013-02-01 05:01:00,
2013-01-31 21:05:00,46.0,43.2,29.77,North,355,0.0,2.0,90,0.00,,,0.00,Wunderground v.1.15,2013-02-01 05:05:00,
2013-01-31 21:07:00,46.0,43.2,29.77,NE,50,0.0,2.0,90,0.00,,,0.00,Wunderground v.1.15,2013-02-01 05:07:00,
2013-01-31 21:12:00,46.1,43.6,29.77,ENE,71,0.0,2.0,91,0.00,,,0.00,Wunderground v.1.15,2013-02-01 05:12:00,
2013-01-31 21:18:00,46.0,43.2,29.77,NE,44,0.0,2.0,90,0.00,,,0.00,Wunderground v.1.15,2013-02-01 05:18:00,
2013-01-31 21:24:00,45.9,43.1,29.77,NE,46,0.0,2.0,90,0.00,,,0.00,Wunderground v.1.15,2013-02-01 05:24:00,
2013-01-31 21:29:00,45.8,43.0,29.77,NE,46,0.0,2.0,90,0.00,,,0.00,Wunderground v.1.15,2013-02-01 05:29:00,
2013-01-31 21:35:00,45.6,42.8,29.77,NE,42,1.0,2.0,90,0.00,,,0.00,Wunderground v.1.15,2013-02-01 05:35:00,
2013-01-31 21:41:00,45.6,43.1,29.77,NNE,22,1.0,2.0,91,0.00,,,0.00,Wunderground v.1.15,2013-02-01 05:41:00,
2013-01-31 21:47:00,45.6,42.8,29.76,North,5,1.0,2.0,90,0.00,,,0.00,Wunderground v.1.15,2013-02-01 05:47:00,
2013-01-31 21:52:00,45.5,42.7,29.76,NNE,21,2.0,3.0,90,0.00,,,0.00,Wunderground v.1.15,2013-02-01 05:52:00,
2013-01-31 21:58:00,45.6,42.5,29.76,NNE,32,2.0,3.0,89,0.00,,,0.00,Wunderground v.1.15,2013-02-01 05:58:00,
2013-01-31 22:04:00,45.7,42.6,29.76,NE,47,1.0,2.0,89,0.00,,,0.00,Wunderground v.1.15,2013-02-01 06:04:00,
2013-01-31 22:10:00,45.7,42.6,29.76,ENE,72,1.0,1.0,89,0.00,,,0.00,Wunderground v.1.15,2013-02-01 06:10:00,
2013-01-31 22:15:00,45.6,42.3,29.76,NE,52,1.0,2.0,88,0.00,,,0.00,Wunderground v.1.15,2013-02-01 06:15:00,
2013-01-31 22:21:00,45.4,42.1,29.76,NE,43,0.0,2.0,88,0.00,,,0.00,Wunderground v.1.15,2013-02-01 06:21:00,
2013-01-31 22:27:00,45.2,41.9,29.76,NE,41,1.0,2.0,88,0.00,,,0.00,Wunderground v.1.15,2013-02-01 06:27:00,
2013-01-31 22:33:00,44.9,41.6,29.76,NE,37,1.0,2.0,88,0.00,,,0.00,Wunderground v.1.15,2013-02-01 06:33:00,
2013-01-31 22:39:00,44.6,41.3,29.76,NE,36,1.0,2.0,88,0.00,,,0.00,Wunderground v.1.15,2013-02-01 06:39:00,
2013-01-31 22:45:00,44.4,41.4,29.76,NNE,14,1.0,2.0,89,0.00,,,0.00,Wunderground v.1.15,2013-02-01 06:45:00,
2013-01-31 22:51:00,44.2,41.5,29.77,North,9,1.0,2.0,90,0.00,,,0.00,Wunderground v.1.15,2013-02-01 06:51:00,
2013-01-31 22:57:00,44.2,41.5,29.77,North,9,0.0,2.0,90,0.00,,,0.00,Wunderground v.1.15,2013-02-01 06:57:00,
2013-01-31 23:02:00,44.0,41.3,29.77,North,355,1.0,2.0,90,0.00,,,0.00,Wunderground v.1.15,2013-02-01 07:02:00,
2013-01-31 23:07:00,43.8,41.1,29.77,NW,326,1.0,2.0,90,0.00,,,0.00,Wunderground v.1.15,2013-02-01 07:07:00,
2013-01-31 23:13:00,43.7,41.2,29.77,NW,326,1.0,2.0,91,0.00,,,0.00,Wunderground v.1.15,2013-02-01 07:13:00,
2013-01-31 23:19:00,43.6,41.1,29.77,NNW,327,1.0,2.0,91,0.00,,,0.00,Wunderground v.1.15,2013-02-01 07:19:00,
2013-01-31 23:24:00,43.5,41.0,29.77,NNW,334,1.0,2.0,91,0.00,,,0.00,Wunderground v.1.15,2013-02-01 07:24:00,
2013-01-31 23:30:00,43.3,40.8,29.77,NNW,334,1.0,2.0,91,0.00,,,0.00,Wunderground v.1.15,2013-02-01 07:30:00,
2013-01-31 23:35:00,43.2,40.8,29.77,NNW,334,1.0,2.0,91,0.00,,,0.00,Wunderground v.1.15,2013-02-01 07:35:00,
2013-01-31 23:41:00,43.0,40.6,29.77,North,355,1.0,2.0,91,0.00,,,0.00,Wunderground v.1.15,2013-02-01 07:41:00,
2013-01-31 23:46:00,42.9,40.7,29.77,North,360,1.0,2.0,92,0.00,,,0.00,Wunderground v.1.15,2013-02-01 07:46:00,
2013-01-31 23:52:00,42.7,40.5,29.77,North,355,1.0,2.0,92,0.00,,,0.00,Wunderground v.1.15,2013-02-01 07:52:00,
2013-01-31 23:57:00,42.7,40.5,29.77,North,351,1.0,2.0,92,0.00,,,0.00,Wunderground v.1.15,2013-02-01 07:57:00,